Accueil
METAR-TAF:

METAR-TAF

Aéroports :

Aéroport international de Pékin-Capitale

Pékin, Chine

latitude: 39-56N, longitude: 116-17E, altitude: 55 m

Observation

Le bulletin a été fait il y a 39 minutes, à 03:30 UTC
Vent 4 kt de est/sud-est, variant entre est et sud/sud-est
Température 31°C
Humidité 52%
Pression 1002 hPa
Visibilité: 8000 m
faibles averses de pluie

METAR: ZBAA 250330Z 11002MPS 080V150 8000 -SHRA NSC 31/20 Q1002 NOSIG

Heure: 12:09 (04:09 UTC)

Prévision

Le bulletin a été fait il y a 6 heures et 49 minutes, à 21:20 UTC
Prévision valable du 25 à 00 UTC au 25 à 24 UTC
Vent 8 kt de sud-est
Visibilité: 6000 m

TAF: ZBAA 242120Z 2500/2524 13004MPS 6000 NSC TX33/2507Z TN24/2521Z

Observations et prévisions météorologiques de plus de 4000 aéroports (messages METAR et TAF).

Les stations disponibles sont représentées par des disques jaunes et rouges sur la carte.

Passer la souris dessus pour voir le nom de la station.

Cliquer dessus pour voir les observations et prévisions météorologiques.

Pour changer de carte: cliquez sur les boutons verts avec une croix noire pour zoomer, sur le bouton vert avec un tiret pour effectuer un zoom arrière, ou sur les flèches vertes pour les cartes adjacentes.


METAR-TAF: